Harrington, South Dakota
Current Conditions -  °F | °C
As of 5:52 AM on Thursday 27 Nov 2014 (Local Time) from KIEN Reporting Station
Clear Clear  
Wind Chill: 26°   Ceiling: Unl
Heat Index: 26°   Visibility: 10mi
Dew Point: 22°   Wind: 0mph
Humidity: 84%   Direction: NA
Pressure: 30.14"   Gusts: NA
Location:  43.2013°N, 101.679°W
Report Text: KIEN 271252Z AUTO 00000KT 10SM CLR M03/M06 A3014 RMK AO2 SLP242 T10331056
Loading
Personal Weather Stations






























Interactive Weather Map New forecast layout! Learn more

10-Day Weather Forecast

Advertisements
Track Severe Weather on mobile